Time;durP1;ratioP1;P1;durP2;ratioP2;P2;SDS_P1;SDS_P2;PMS_P1;PMS_P2;Temp;Humidity;BMP_temperature;BMP_pressure;BME280_temperature;BME280_humidity;BME280_pressure;Samples;Min_cycle;Max_cycle;Signal;HPM_P1;HPM_P2
2022/08/04 00:01:25;;;;;;;5.38;2.30;;;;;;;25.64;53.95;101197.16;5072025;28;20029;-64
2022/08/04 00:03:57;;;;;;;5.57;2.25;;;;;;;25.64;54.18;101201.63;5072152;28;20460;-64
2022/08/04 00:06:52;;;;;;;7.22;2.53;;;;;;;25.63;54.29;101194.66;5071541;28;20365;-64
2022/08/04 00:09:27;;;;;;;5.35;2.28;;;;;;;25.62;53.94;101198.31;5075938;28;20036;-64
2022/08/04 00:11:56;;;;;;;7.05;2.47;;;;;;;25.62;54.14;101193.81;5075665;28;20055;-64
2022/08/04 00:14:27;;;;;;;5.00;2.40;;;;;;;25.61;54.07;101194.81;5076118;28;20111;-64
2022/08/04 00:16:53;;;;;;;5.90;2.42;;;;;;;25.61;53.89;101193.97;5075968;28;20036;-64
2022/08/04 00:19:31;;;;;;;6.20;2.40;;;;;;;25.60;54.03;101185.13;5074876;28;20047;-64
2022/08/04 00:22:07;;;;;;;5.50;2.40;;;;;;;25.60;53.78;101184.31;5075479;28;20111;-64
2022/08/04 00:24:34;;;;;;;5.70;2.33;;;;;;;25.58;53.81;101184.47;5075796;28;20036;-64
2022/08/04 00:26:59;;;;;;;5.28;2.30;;;;;;;25.57;53.71;101174.78;5075084;28;20032;-64
2022/08/04 00:29:26;;;;;;;5.07;2.00;;;;;;;25.60;53.80;101178.97;5075880;28;20151;-64
2022/08/04 00:31:51;;;;;;;6.72;2.50;;;;;;;25.58;53.46;101181.81;5075738;28;20150;-64
2022/08/04 00:34:17;;;;;;;7.70;2.47;;;;;;;25.58;53.92;101176.47;5073836;28;20108;-64
2022/08/04 00:36:43;;;;;;;6.13;2.30;;;;;;;25.59;53.47;101170.13;5075676;28;20021;-64
2022/08/04 00:39:12;;;;;;;6.38;2.50;;;;;;;25.58;53.63;101167.63;5075421;28;20035;-64
2022/08/04 00:41:56;;;;;;;5.57;2.00;;;;;;;25.58;53.65;101168.47;5074978;28;20029;-64
2022/08/04 00:45:02;;;;;;;6.35;2.20;;;;;;;25.57;53.56;101166.78;5075507;28;20111;-64
2022/08/04 00:47:50;;;;;;;4.88;2.05;;;;;;;25.57;53.40;101169.44;5074802;28;20029;-64
2022/08/04 00:50:42;;;;;;;6.90;2.10;;;;;;;25.57;53.43;101161.44;5075098;28;20116;-64
2022/08/04 00:53:29;;;;;;;5.97;2.50;;;;;;;25.56;53.48;101162.44;5075174;28;20108;-64
2022/08/04 00:56:12;;;;;;;4.47;1.80;;;;;;;25.56;53.26;101162.44;5074561;28;20384;-64
2022/08/04 00:59:01;;;;;;;4.87;2.23;;;;;;;25.55;53.18;101163.47;5075453;28;20115;-64
2022/08/04 01:01:35;;;;;;;4.90;2.15;;;;;;;25.55;53.78;101158.13;5074608;28;20280;-64
2022/08/04 01:04:07;;;;;;;5.20;1.80;;;;;;;25.53;53.16;101160.97;5075054;28;20060;-64
2022/08/04 01:07:03;;;;;;;4.55;1.98;;;;;;;25.54;53.18;101153.78;5075261;28;20043;-64
2022/08/04 01:09:54;;;;;;;6.63;2.25;;;;;;;25.53;53.28;101160.97;5074382;28;20138;-64
2022/08/04 01:12:25;;;;;;;5.07;2.10;;;;;;;25.53;53.45;101157.44;5074790;28;20380;-64
2022/08/04 01:15:16;;;;;;;5.28;2.10;;;;;;;25.52;53.00;101148.59;5075085;28;20051;-64
2022/08/04 01:18:02;;;;;;;4.57;2.03;;;;;;;25.51;52.96;101143.44;5074820;28;20127;-64
2022/08/04 01:20:33;;;;;;;5.07;1.70;;;;;;;25.49;53.18;101143.59;5073866;28;20025;-64
2022/08/04 01:23:22;;;;;;;5.45;2.10;;;;;;;25.50;52.96;101150.63;5074113;28;20035;-64
2022/08/04 01:25:59;;;;;;;5.35;2.00;;;;;;;25.50;53.11;101142.59;5074977;28;20071;-64
2022/08/04 01:29:09;;;;;;;3.65;1.70;;;;;;;25.51;52.99;101138.09;5074814;28;20380;-64
2022/08/04 01:32:01;;;;;;;5.25;2.00;;;;;;;25.50;52.98;101139.09;5074587;28;20048;-64
2022/08/04 01:34:41;;;;;;;5.97;2.20;;;;;;;25.49;53.13;101135.59;5074593;28;20369;-64
2022/08/04 01:37:22;;;;;;;5.40;2.15;;;;;;;25.49;53.07;101126.75;5073397;28;20032;-64
2022/08/04 01:40:00;;;;;;;5.38;2.20;;;;;;;25.49;53.22;101132.09;5074604;28;20471;-64
2022/08/04 01:42:29;;;;;;;5.38;2.25;;;;;;;25.49;53.33;101122.25;5074557;28;20491;-64
2022/08/04 01:44:57;;;;;;;6.85;2.35;;;;;;;25.48;52.82;101125.09;5073633;28;20052;-64
2022/08/04 01:47:27;;;;;;;7.55;2.30;;;;;;;25.48;52.74;101123.25;5074349;28;20031;-64
2022/08/04 01:49:55;;;;;;;7.82;2.13;;;;;;;25.46;52.58;101125.25;5074533;28;20028;-64
2022/08/04 01:52:23;;;;;;;7.10;2.63;;;;;;;25.48;52.56;101125.09;5073336;28;20480;-64
2022/08/04 01:54:49;;;;;;;3.88;1.77;;;;;;;25.47;52.52;101126.09;5074350;28;20035;-64
2022/08/04 01:57:17;;;;;;;4.88;2.20;;;;;;;25.48;52.57;101120.56;5074063;28;20027;-64
2022/08/04 01:59:44;;;;;;;7.47;1.80;;;;;;;25.47;52.59;101121.59;5073625;28;20017;-64
2022/08/04 02:02:10;;;;;;;6.80;2.42;;;;;;;25.47;52.90;101115.44;5074007;28;20025;-64
2022/08/04 02:04:35;;;;;;;8.27;2.13;;;;;;;25.47;52.72;101115.44;5073380;28;20032;-64
2022/08/04 02:07:14;;;;;;;6.28;2.10;;;;;;;25.48;52.62;101117.09;5073853;28;20504;-64
2022/08/04 02:09:59;;;;;;;4.07;1.90;;;;;;;25.47;52.81;101118.94;5074116;28;20089;-64
2022/08/04 02:12:38;;;;;;;6.95;2.13;;;;;;;25.48;52.32;101117.09;5073139;28;20476;-64
2022/08/04 02:15:17;;;;;;;5.30;1.95;;;;;;;25.47;52.50;101118.09;5073728;28;20055;-65
2022/08/04 02:18:01;;;;;;;6.65;2.10;;;;;;;25.47;52.43;101105.59;5073632;28;20088;-64
2022/08/04 02:20:48;;;;;;;5.30;1.83;;;;;;;25.47;52.65;101099.44;5073092;28;20021;-64
2022/08/04 02:23:22;;;;;;;6.88;2.08;;;;;;;25.47;52.39;101102.91;5073160;28;20427;-64
2022/08/04 02:26:03;;;;;;;7.30;1.98;;;;;;;25.47;52.43;101105.59;5072988;28;20324;-64
2022/08/04 02:29:07;;;;;;;5.55;2.40;;;;;;;25.46;52.20;101095.09;5073644;28;20033;-64
2022/08/04 02:31:42;;;;;;;5.45;2.10;;;;;;;25.44;52.34;101091.75;5073466;28;20036;-64
2022/08/04 02:34:08;;;;;;;5.78;1.90;;;;;;;25.46;52.01;101097.75;5072548;28;20365;-64
2022/08/04 02:36:41;;;;;;;5.28;1.95;;;;;;;25.44;52.51;101095.25;5073403;28;20465;-64
2022/08/04 02:39:09;;;;;;;5.30;2.03;;;;;;;25.44;52.01;101100.59;5073188;28;20029;-64
2022/08/04 02:41:35;;;;;;;4.70;1.80;;;;;;;25.43;52.03;101093.56;5072555;28;20111;-64
2022/08/04 02:44:03;;;;;;;5.57;1.60;;;;;;;25.44;52.37;101092.59;5073235;28;20074;-65
2022/08/04 02:46:30;;;;;;;4.70;1.85;;;;;;;25.45;52.38;101088.91;5073450;28;20111;-64
2022/08/04 02:48:56;;;;;;;5.07;2.05;;;;;;;25.44;52.38;101083.75;5072684;28;20024;-64
2022/08/04 02:51:26;;;;;;;5.82;1.90;;;;;;;25.43;51.92;101082.91;5073134;28;20376;-64
2022/08/04 02:53:54;;;;;;;5.78;1.67;;;;;;;25.43;52.20;101088.22;5072154;28;20024;-64
2022/08/04 02:56:21;;;;;;;5.13;1.80;;;;;;;25.43;52.30;101074.06;5072776;28;20028;-64
2022/08/04 02:58:50;;;;;;;5.78;2.50;;;;;;;25.43;51.97;101076.75;5073015;28;20389;-64
2022/08/04 03:01:16;;;;;;;6.25;2.13;;;;;;;25.42;52.10;101067.91;5072019;28;20032;-64
2022/08/04 03:04:05;;;;;;;7.72;2.03;;;;;;;25.42;52.27;101070.59;5073018;28;20051;-64
2022/08/04 03:06:52;;;;;;;5.53;1.90;;;;;;;25.42;51.95;101065.25;5072926;28;20036;-64
2022/08/04 03:09:30;;;;;;;4.95;1.77;;;;;;;25.43;51.65;101058.88;5071814;28;20020;-64
2022/08/04 03:12:16;;;;;;;5.10;1.92;;;;;;;25.43;52.03;101063.41;5072937;28;20024;-65
2022/08/04 03:14:50;;;;;;;8.35;1.88;;;;;;;25.42;51.82;101059.06;5072058;28;20399;-64
2022/08/04 03:17:21;;;;;;;3.85;1.55;;;;;;;25.42;51.71;101069.72;5072308;28;20056;-64
2022/08/04 03:20:32;;;;;;;4.97;2.00;;;;;;;25.41;51.96;101070.75;5072938;28;20025;-64
2022/08/04 03:23:21;;;;;;;4.90;2.00;;;;;;;25.41;51.82;101086.75;5071531;28;20036;-64
2022/08/04 03:26:05;;;;;;;5.60;1.73;;;;;;;25.41;51.57;101103.59;5072837;28;20036;-64
2022/08/04 03:28:45;;;;;;;;;;;;;;;25.43;51.27;101100.75;5073225;28;20033;-64
2022/08/04 03:31:30;;;;;;;5.70;1.75;;;;;;;25.43;51.44;101082.91;5072348;28;19920;-64
2022/08/04 03:34:46;;;;;;;6.72;2.05;;;;;;;25.43;51.65;101080.22;5072676;28;20097;-64
2022/08/04 03:37:30;;;;;;;4.53;1.80;;;;;;;25.46;51.55;101079.91;5001060;28;20044;-64
2022/08/04 03:40:20;;;;;;;4.70;1.77;;;;;;;25.45;51.23;101086.25;5072394;28;20020;-64
2022/08/04 03:43:13;;;;;;;4.72;1.88;;;;;;;25.44;51.36;101079.25;5076327;28;20028;-64
2022/08/04 03:45:51;;;;;;;4.65;1.80;;;;;;;25.43;51.13;101082.91;5078633;28;20036;-64
2022/08/04 03:48:35;;;;;;;4.65;1.80;;;;;;;25.42;51.51;101085.72;5078850;28;20055;-64
2022/08/04 03:54:52;;;;;;;6.00;2.08;;;;;;;25.39;51.64;101096.72;5078897;28;20598;-64
2022/08/04 03:57:45;;;;;;;4.22;1.98;;;;;;;25.36;51.75;101103.25;5078131;28;20077;-64
2022/08/04 04:00:31;;;;;;;5.15;1.65;;;;;;;25.34;51.51;101100.75;5078704;28;20103;-64
2022/08/04 04:03:17;;;;;;;5.55;1.80;;;;;;;25.34;51.86;101105.25;5078675;28;20025;-64
2022/08/04 04:05:57;;;;;;;6.13;1.92;;;;;;;25.33;51.58;101115.09;5078068;28;20430;-64
2022/08/04 04:08:45;;;;;;;5.22;1.90;;;;;;;25.32;51.62;101115.25;5079122;28;20388;-64
2022/08/04 04:11:54;;;;;;;5.72;1.92;;;;;;;25.30;51.48;101106.59;5078472;28;20111;-64
2022/08/04 04:14:58;;;;;;;4.35;1.50;;;;;;;25.29;51.75;101110.25;5078743;28;20131;-64
2022/08/04 04:17:42;;;;;;;6.30;1.75;;;;;;;25.28;51.34;101106.75;5078737;28;20055;-64
2022/08/04 04:20:41;;;;;;;6.05;1.90;;;;;;;25.26;51.78;101103.41;5078054;28;20036;-64
2022/08/04 04:23:37;;;;;;;5.10;2.00;;;;;;;25.25;51.49;101109.72;5078519;28;20498;-66
2022/08/04 04:26:48;;;;;;;8.20;2.00;;;;;;;25.25;51.94;101106.22;5033386;28;20036;-64
2022/08/04 04:29:16;;;;;;;4.75;1.75;;;;;;;25.24;51.90;101113.38;5078589;28;20353;-64
2022/08/04 04:32:02;;;;;;;6.18;1.98;;;;;;;25.24;51.80;101112.53;5078778;28;20028;-64
2022/08/04 04:34:33;;;;;;;5.13;1.90;;;;;;;25.24;51.67;101109.88;5078804;28;20154;-64
2022/08/04 04:37:20;;;;;;;5.90;2.13;;;;;;;25.24;51.84;101104.53;5078288;28;20060;-64
2022/08/04 04:40:02;;;;;;;6.00;2.20;;;;;;;25.23;52.06;101113.53;5078054;28;20396;-63
2022/08/04 04:43:00;;;;;;;5.28;1.80;;;;;;;25.23;51.64;101110.88;5078594;28;20078;-63
2022/08/04 04:45:33;;;;;;;4.40;1.95;;;;;;;25.23;51.83;101103.72;5078548;28;20430;-63
2022/08/04 04:48:32;;;;;;;5.07;1.90;;;;;;;25.23;51.75;101103.72;5077661;28;20025;-63
2022/08/04 04:51:00;;;;;;;6.82;1.90;;;;;;;25.25;51.62;101117.72;5078430;28;20415;-62
2022/08/04 04:53:53;;;;;;;4.65;2.10;;;;;;;25.24;52.13;101102.69;5077095;28;20443;-64
2022/08/04 04:56:35;;;;;;;6.97;2.25;;;;;;;25.26;51.94;101106.06;5074887;28;20037;-63
2022/08/04 04:59:02;;;;;;;5.30;1.80;;;;;;;25.28;52.10;101124.59;5074860;28;20032;-64
2022/08/04 05:01:42;;;;;;;5.65;2.20;;;;;;;25.27;52.24;101123.72;5073877;28;20033;-63
2022/08/04 05:04:23;;;;;;;6.93;2.20;;;;;;;25.28;52.25;101124.59;5075076;28;20021;-65
2022/08/04 05:07:20;;;;;;;6.55;2.38;;;;;;;25.28;52.01;101124.59;5075332;28;20025;-64
2022/08/04 05:09:54;;;;;;;6.13;2.05;;;;;;;25.28;52.23;101128.09;5075358;28;20020;-64
2022/08/04 05:12:50;;;;;;;5.22;2.13;;;;;;;25.28;52.17;101120.09;5074867;28;20147;-65
2022/08/04 05:15:17;;;;;;;5.53;2.20;;;;;;;25.28;52.37;101120.09;5063437;28;20150;-65
2022/08/04 05:17:50;;;;;;;4.50;2.10;;;;;;;25.29;52.18;101124.44;5074625;28;20066;-65
2022/08/04 05:20:22;;;;;;;5.25;2.10;;;;;;;25.27;52.18;101121.03;5074613;28;20043;-65
2022/08/04 05:22:55;;;;;;;5.47;1.90;;;;;;;25.28;52.60;101133.41;5074171;28;20155;-65
2022/08/04 05:25:43;;;;;;;6.18;2.97;;;;;;;25.29;52.37;101127.09;5074756;28;20113;-63
2022/08/04 05:28:16;;;;;;;5.30;2.10;;;;;;;25.29;52.48;101119.09;5074302;28;20035;-64
2022/08/04 05:30:48;;;;;;;7.18;2.10;;;;;;;25.31;52.79;101121.56;5074328;28;20028;-63
2022/08/04 05:33:19;;;;;;;6.65;2.28;;;;;;;25.31;52.54;101119.75;5074526;28;20039;-63
2022/08/04 05:35:48;;;;;;;4.18;1.65;;;;;;;25.32;52.63;101112.56;5074014;28;20352;-63
2022/08/04 05:38:17;;;;;;;5.28;2.10;;;;;;;25.32;52.43;101110.72;5074189;28;20463;-63
2022/08/04 05:40:43;;;;;;;5.93;2.35;;;;;;;25.34;52.80;101106.09;5074346;28;20035;-63
2022/08/04 05:43:11;;;;;;;5.30;2.15;;;;;;;25.33;52.45;101101.75;5073528;28;20082;-64
2022/08/04 05:45:37;;;;;;;4.05;1.70;;;;;;;25.34;52.38;101107.91;5074345;28;20055;-63
2022/08/04 05:48:04;;;;;;;8.93;3.08;;;;;;;25.35;53.10;101098.91;5074066;28;20549;-64
2022/08/04 05:50:30;;;;;;;8.65;3.25;;;;;;;25.24;53.99;101093.88;5073637;28;20133;-66
2022/08/04 05:52:58;;;;;;;8.20;2.83;;;;;;;25.10;55.35;101103.34;5074042;28;20108;-67
2022/08/04 05:55:24;;;;;;;13.35;3.38;;;;;;;24.92;56.66;101107.00;5074233;28;20523;-65
2022/08/04 05:57:49;;;;;;;13.63;3.20;;;;;;;24.77;57.42;101112.13;5073593;28;20029;-67
2022/08/04 06:00:16;;;;;;;16.83;4.03;;;;;;;24.66;57.39;101116.91;5073901;28;20530;-66
2022/08/04 06:02:45;;;;;;;15.65;3.80;;;;;;;24.56;58.16;101115.22;5074243;28;20029;-66
2022/08/04 06:05:13;;;;;;;10.20;3.75;;;;;;;24.48;57.84;101117.81;5072386;28;20032;-67
2022/08/04 06:07:38;;;;;;;7.97;2.85;;;;;;;24.41;58.68;101114.97;5073898;28;20028;-67
2022/08/04 06:10:05;;;;;;;12.40;3.30;;;;;;;24.34;58.19;101113.94;5073516;28;20025;-66
2022/08/04 06:12:48;;;;;;;9.02;3.47;;;;;;;24.30;58.14;101117.91;5073404;28;20253;-66
2022/08/04 06:15:17;;;;;;;8.35;4.10;;;;;;;24.26;58.06;101117.41;5073709;28;20043;-65
2022/08/04 06:17:48;;;;;;;13.13;4.20;;;;;;;24.23;58.41;101116.88;5072861;28;20131;-66
2022/08/04 06:20:16;;;;;;;9.48;3.78;;;;;;;24.24;58.19;101119.38;5073445;28;20115;-66
2022/08/04 06:22:44;;;;;;;8.93;4.93;;;;;;;24.24;58.14;101124.72;5073834;28;20025;-68
2022/08/04 06:25:14;;;;;;;10.07;5.07;;;;;;;24.23;57.86;101123.03;5072564;28;20028;-68
2022/08/04 06:27:40;;;;;;;8.75;4.82;;;;;;;24.22;57.93;101126.69;5073425;28;20484;-67
2022/08/04 06:30:10;;;;;;;9.35;4.45;;;;;;;24.25;57.92;101122.88;5073221;28;20039;-67
2022/08/04 06:32:55;;;;;;;11.07;4.65;;;;;;;24.24;58.30;101121.19;5072761;28;20095;-67
2022/08/04 06:35:22;;;;;;;8.27;5.00;;;;;;;24.29;58.13;101126.88;5073576;28;20107;-67
2022/08/04 06:37:49;;;;;;;9.40;5.30;;;;;;;24.31;58.10;101138.22;5073510;28;20028;-65
2022/08/04 06:40:17;;;;;;;12.75;5.70;;;;;;;24.32;57.87;101131.06;5072623;28;20024;-72
2022/08/04 06:42:44;;;;;;;10.82;5.35;;;;;;;24.29;58.74;101140.19;5073375;28;20093;-71
2022/08/04 06:45:13;;;;;;;8.77;4.63;;;;;;;24.33;58.02;101138.06;5072818;28;20067;-71
2022/08/04 06:47:43;;;;;;;9.55;4.40;;;;;;;24.41;57.86;101140.78;5072369;28;20036;-69
2022/08/04 06:50:09;;;;;;;7.85;4.07;;;;;;;24.50;57.23;101142.47;5072808;28;20032;-72
2022/08/04 06:52:36;;;;;;;10.82;4.43;;;;;;;24.60;56.67;101147.72;5073094;28;20469;-71
2022/08/04 06:55:02;;;;;;;10.07;5.30;;;;;;;24.70;55.99;101144.91;5072137;28;20029;-73
2022/08/04 06:57:29;;;;;;;11.82;5.15;;;;;;;24.78;56.05;101152.94;5072939;28;20097;-71
2022/08/04 07:00:10;;;;;;;11.07;5.07;;;;;;;24.84;55.85;101146.13;5072196;28;20025;-70
2022/08/04 07:02:58;;;;;;;9.90;4.72;;;;;;;24.90;56.72;101134.81;5073177;28;20488;-70
2022/08/04 07:05:24;;;;;;;7.88;3.97;;;;;;;24.92;56.76;101133.66;5072125;28;20117;-71
2022/08/04 07:07:49;;;;;;;14.30;5.20;;;;;;;25.01;56.93;101133.66;5072281;28;20475;-72
2022/08/04 07:10:15;;;;;;;7.88;4.47;;;;;;;25.06;56.77;101134.84;5072475;28;20483;-70
2022/08/04 07:12:42;;;;;;;12.23;4.80;;;;;;;25.12;56.55;101130.72;5073793;28;20029;-72
2022/08/04 07:15:09;;;;;;;7.65;4.50;;;;;;;25.16;56.21;101143.53;5071981;28;20029;-71
2022/08/04 07:17:35;;;;;;;9.40;4.75;;;;;;;25.23;56.09;101141.06;5071860;28;20435;-70
2022/08/04 07:20:04;;;;;;;8.23;4.72;;;;;;;25.26;55.63;101137.22;5072486;28;20024;-68
2022/08/04 07:22:29;;;;;;;16.15;5.75;;;;;;;25.24;55.95;101134.72;5071880;28;20025;-71
2022/08/04 07:24:56;;;;;;;17.83;5.80;;;;;;;25.28;55.90;101151.28;5072608;28;20032;-67
2022/08/04 07:27:26;;;;;;;11.15;4.00;;;;;;;25.30;55.59;101151.94;5073989;28;20396;-68
2022/08/04 07:29:52;;;;;;;10.68;3.67;;;;;;;25.37;55.57;101149.44;5071980;28;20108;-68
2022/08/04 07:32:21;;;;;;;12.38;4.13;;;;;;;25.46;55.13;101156.44;5072408;28;20028;-67
2022/08/04 07:34:53;;;;;;;12.52;3.92;;;;;;;25.52;54.67;101156.59;5072727;28;20487;-68
2022/08/04 07:37:21;;;;;;;8.40;3.25;;;;;;;25.59;54.24;101159.44;5071985;28;20411;-68
2022/08/04 07:39:47;;;;;;;7.60;2.90;;;;;;;25.63;53.97;101157.28;5072787;28;20029;-76
2022/08/04 07:42:12;;;;;;;7.63;3.10;;;;;;;25.69;54.09;101159.25;5071754;28;20372;-69
2022/08/04 07:44:43;;;;;;;8.85;3.58;;;;;;;25.72;53.91;101153.59;5072388;28;20281;-66
2022/08/04 07:47:09;;;;;;;11.50;3.20;;;;;;;25.75;54.09;101155.09;5072235;28;20031;-65
2022/08/04 07:49:35;;;;;;;6.88;2.88;;;;;;;25.76;53.77;101154.94;5071716;28;20020;-69
2022/08/04 07:52:01;;;;;;;6.93;3.10;;;;;;;25.80;53.53;101156.28;5072006;28;20048;-67
2022/08/04 07:54:26;;;;;;;9.02;3.03;;;;;;;25.84;53.95;101154.09;5072297;28;20472;-68
2022/08/04 07:56:52;;;;;;;9.02;3.13;;;;;;;25.88;53.27;101155.41;5071731;28;20028;-70
2022/08/04 07:59:18;;;;;;;8.23;3.13;;;;;;;25.91;53.31;101157.75;5072149;28;20070;-67
2022/08/04 08:01:45;;;;;;;11.63;3.03;;;;;;;25.93;53.54;101160.25;5072320;28;20472;-65
2022/08/04 08:04:11;;;;;;;6.97;2.42;;;;;;;25.94;53.09;101169.94;5071271;28;20495;-66
2022/08/04 08:06:40;;;;;;;9.40;3.10;;;;;;;25.93;53.49;101165.59;5072187;28;20025;-69
2022/08/04 08:09:11;;;;;;;7.40;2.63;;;;;;;25.95;53.46;101179.63;5072120;28;20016;-70
2022/08/04 08:11:37;;;;;;;8.15;2.85;;;;;;;25.97;53.02;101177.66;5071598;28;20056;-70
2022/08/04 08:14:02;;;;;;;9.27;2.88;;;;;;;25.98;52.98;101177.47;5071979;28;20055;-70
2022/08/04 08:16:27;;;;;;;7.07;2.78;;;;;;;26.00;53.32;101186.16;5072107;28;20441;-70
2022/08/04 08:18:55;;;;;;;7.75;2.60;;;;;;;25.99;53.10;101181.81;5071332;28;20121;-70
2022/08/04 08:21:21;;;;;;;8.20;2.60;;;;;;;26.02;53.11;101176.13;5072217;28;20040;-68
2022/08/04 08:23:50;;;;;;;9.70;3.00;;;;;;;26.03;53.11;101172.47;5072258;28;20511;-67
2022/08/04 08:26:15;;;;;;;8.20;2.50;;;;;;;26.08;53.15;101174.63;5070855;28;20031;-66
2022/08/04 08:28:41;;;;;;;7.25;2.47;;;;;;;26.10;53.13;101177.94;5073545;28;20033;-69
2022/08/04 08:31:06;;;;;;;7.32;2.80;;;;;;;26.10;52.77;101180.63;5075566;28;20383;-67
2022/08/04 08:33:31;;;;;;;8.03;2.90;;;;;;;26.09;52.80;101180.78;5074851;28;20544;-68
2022/08/04 08:36:06;;;;;;;6.50;2.50;;;;;;;26.05;52.88;101189.13;5075363;28;20425;-67
2022/08/04 08:38:56;;;;;;;6.95;2.22;;;;;;;26.07;53.10;101191.63;5075061;28;20032;-69
2022/08/04 08:41:46;;;;;;;5.28;2.80;;;;;;;26.10;53.28;101203.84;5075830;28;20048;-67
2022/08/04 08:44:34;;;;;;;5.57;2.30;;;;;;;26.13;53.20;101200.81;5075110;28;20373;-68
2022/08/04 08:47:27;;;;;;;8.88;2.60;;;;;;;26.14;53.05;101203.31;5074575;28;20024;-69
2022/08/04 08:50:18;;;;;;;6.10;2.60;;;;;;;26.15;53.00;101201.47;5075598;28;20032;-69
2022/08/04 08:53:07;;;;;;;7.00;2.83;;;;;;;26.18;52.74;101207.31;5074607;28;20032;-71
2022/08/04 08:56:01;;;;;;;4.38;2.08;;;;;;;26.21;53.05;101206.97;5075534;28;20037;-71
2022/08/04 08:58:48;;;;;;;5.37;2.30;;;;;;;26.24;52.68;101205.81;5075431;28;20028;-72
2022/08/04 09:01:26;;;;;;;10.05;2.30;;;;;;;26.27;52.93;101207.31;5074239;28;20456;-68
2022/08/04 09:04:09;;;;;;;6.93;2.58;;;;;;;26.25;53.04;101204.81;5075303;28;20055;-71
2022/08/04 09:06:49;;;;;;;4.70;2.55;;;;;;;26.27;53.18;101207.31;5074486;28;20046;-71
2022/08/04 09:09:34;;;;;;;6.10;2.55;;;;;;;26.29;53.34;101221.34;5075163;28;20413;-70
2022/08/04 09:12:14;;;;;;;5.75;2.50;;;;;;;26.30;53.13;101215.00;5074923;28;20380;-75
2022/08/04 09:15:01;;;;;;;6.07;2.42;;;;;;;26.28;53.26;101215.16;5074505;28;20494;-71
2022/08/04 09:17:50;;;;;;;7.72;2.85;;;;;;;26.32;53.00;101221.00;5074957;28;20052;-70
2022/08/04 09:20:29;;;;;;;5.43;2.20;;;;;;;26.34;53.06;101213.63;5074789;28;20032;-71
2022/08/04 09:23:19;;;;;;;5.63;2.22;;;;;;;26.34;53.03;101210.97;5075051;28;20059;-68
2022/08/04 09:26:07;;;;;;;8.38;2.28;;;;;;;26.33;53.17;101222.69;5074769;28;20067;-72
2022/08/04 09:29:13;;;;;;;4.22;1.77;;;;;;;26.33;52.78;101222.69;5074170;28;20032;-70
2022/08/04 09:31:53;;;;;;;5.22;2.40;;;;;;;26.34;53.13;101235.84;5075246;28;20028;-68
2022/08/04 09:34:42;;;;;;;6.57;2.10;;;;;;;26.34;52.99;101230.50;5074554;28;20392;-64
2022/08/04 09:37:16;;;;;;;10.15;2.42;;;;;;;26.33;52.91;101234.19;5074630;28;20028;-71
2022/08/04 09:40:06;;;;;;;7.13;2.60;;;;;;;26.33;52.67;101241.38;5074017;28;20024;-71
2022/08/04 09:42:55;;;;;;;5.57;2.22;;;;;;;26.36;52.45;101249.88;5073757;28;20028;-73
2022/08/04 09:45:35;;;;;;;6.93;2.33;;;;;;;26.37;52.53;101256.88;5074485;28;20058;-70
2022/08/04 09:48:11;;;;;;;6.88;2.20;;;;;;;26.39;52.64;101256.69;5074092;28;20060;-71
2022/08/04 09:50:39;;;;;;;5.60;2.20;;;;;;;26.39;52.51;101257.56;5073552;28;20036;-72
2022/08/04 09:53:31;;;;;;;10.80;2.50;;;;;;;26.39;52.67;101257.56;5074185;28;20085;-71
2022/08/04 09:56:06;;;;;;;6.65;2.60;;;;;;;26.41;52.30;101266.22;5073132;28;20476;-71
2022/08/04 09:59:00;;;;;;;7.45;2.25;;;;;;;26.40;52.67;101272.56;5074183;28;20074;-68
2022/08/04 10:01:31;;;;;;;6.32;2.28;;;;;;;26.38;52.57;101277.25;5074331;28;20025;-67
2022/08/04 10:04:00;;;;;;;8.45;3.10;;;;;;;26.38;52.41;101273.75;5073039;28;20349;-70
2022/08/04 10:06:53;;;;;;;5.03;2.20;;;;;;;26.39;52.62;101275.41;5074231;28;20021;-71
2022/08/04 10:09:24;;;;;;;5.40;2.28;;;;;;;26.41;52.56;101278.75;5073658;28;20075;-69
2022/08/04 10:12:01;;;;;;;5.53;2.20;;;;;;;26.42;52.83;101261.72;5073326;28;20046;-70
2022/08/04 10:14:50;;;;;;;5.97;1.90;;;;;;;26.43;52.39;101282.91;5074030;28;20028;-70
2022/08/04 10:17:38;;;;;;;11.25;2.35;;;;;;;26.43;52.52;101301.63;5072389;28;20045;-69
2022/08/04 10:20:34;;;;;;;6.38;2.30;;;;;;;26.44;52.43;101339.88;5073409;28;20028;-70
2022/08/04 10:23:08;;;;;;;6.88;1.92;;;;;;;26.42;52.42;101355.22;5073502;28;20060;-67
2022/08/04 10:26:33;;;;;;;5.13;2.10;;;;;;;26.42;52.60;101366.78;5072969;28;20464;-65
2022/08/04 10:29:08;;;;;;;6.10;1.88;;;;;;;26.42;52.15;101355.22;4972599;28;20259;-63
2022/08/04 10:31:42;;;;;;;5.93;1.88;;;;;;;26.43;52.11;101355.06;4972036;28;20101;-63
2022/08/04 10:34:12;;;;;;;7.43;1.70;;;;;;;26.43;52.04;101347.03;5045640;28;20036;-63
2022/08/04 10:36:52;;;;;;;7.05;2.03;;;;;;;26.43;52.40;101336.34;5073430;28;20047;-63
2022/08/04 10:39:25;;;;;;;6.05;2.60;;;;;;;26.42;53.31;101312.47;5072601;28;20020;-63
2022/08/04 10:42:18;;;;;;;7.90;2.15;;;;;;;26.40;53.19;101290.44;5073506;28;20086;-63
2022/08/04 10:44:53;;;;;;;9.55;1.80;;;;;;;26.38;53.10;101266.56;5073076;28;20051;-63
2022/08/04 10:47:27;;;;;;;9.25;1.95;;;;;;;26.40;53.77;101258.38;5073127;28;20036;-64
2022/08/04 10:49:58;;;;;;;5.85;1.90;;;;;;;26.38;54.14;101268.41;5073334;28;20029;-71
2022/08/04 10:52:34;;;;;;;6.13;2.03;;;;;;;26.33;54.37;101276.09;5074769;28;20031;-72
2022/08/04 10:55:14;;;;;;;6.80;2.33;;;;;;;26.26;56.81;101273.25;5073379;28;20036;-69
2022/08/04 10:57:51;;;;;;;4.38;1.58;;;;;;;26.30;55.16;101263.91;5073083;28;20456;-66
2022/08/04 11:00:27;;;;;;;6.05;1.67;;;;;;;26.32;55.03;101279.78;5072399;28;20384;-67
2022/08/04 11:03:18;;;;;;;8.55;2.20;;;;;;;26.33;54.69;101297.47;5073087;28;20059;-67
2022/08/04 11:05:51;;;;;;;5.32;1.70;;;;;;;26.33;54.31;101309.00;5072851;28;20028;-67
2022/08/04 11:08:24;;;;;;;6.72;1.70;;;;;;;26.34;53.76;101307.97;5072121;28;20055;-67
2022/08/04 11:11:30;;;;;;;9.95;2.05;;;;;;;26.34;53.56;101289.25;5073072;28;20063;-67
2022/08/04 11:13:59;;;;;;;4.53;1.63;;;;;;;26.34;53.72;101283.91;5071983;28;20028;-68
2022/08/04 11:16:29;;;;;;;7.20;1.90;;;;;;;26.33;53.63;101281.44;5072786;28;20127;-68
2022/08/04 11:19:14;;;;;;;6.75;1.95;;;;;;;26.30;54.02;101277.25;5072970;28;20020;-68
2022/08/04 11:21:46;;;;;;;4.72;1.50;;;;;;;26.30;53.97;101282.63;5072348;28;20036;-68
2022/08/04 11:24:59;;;;;;;5.40;1.80;;;;;;;26.27;54.03;101269.59;5072501;28;20107;-67
2022/08/04 11:27:31;;;;;;;5.50;1.60;;;;;;;26.27;54.03;101272.25;5062824;28;20171;-68
2022/08/04 11:29:59;;;;;;;5.57;1.70;;;;;;;26.23;54.09;101274.44;5072499;28;20029;-68
2022/08/04 11:32:51;;;;;;;5.57;1.90;;;;;;;26.24;54.31;101280.59;5072644;28;20024;-68
2022/08/04 11:35:37;;;;;;;4.97;1.80;;;;;;;26.23;54.07;101285.13;5071693;28;20032;-68
2022/08/04 11:38:11;;;;;;;4.47;1.80;;;;;;;26.23;53.92;101285.13;5072314;28;20021;-67
2022/08/04 11:40:42;;;;;;;5.05;2.20;;;;;;;26.23;54.02;101289.63;5072581;28;20028;-68
2022/08/04 11:43:14;;;;;;;4.72;1.77;;;;;;;26.22;53.87;101287.97;5071316;28;20028;-67
2022/08/04 11:46:00;;;;;;;4.03;1.90;;;;;;;26.21;54.26;101295.13;5072709;28;20021;-67
2022/08/04 11:48:34;;;;;;;5.43;1.80;;;;;;;26.21;54.10;101286.28;5071951;28;20028;-66
2022/08/04 11:51:04;;;;;;;5.05;1.85;;;;;;;26.22;54.03;101280.78;5072299;28;20031;-66
2022/08/04 11:53:31;;;;;;;4.90;1.77;;;;;;;26.21;54.35;101272.94;5072381;28;20029;-66
2022/08/04 11:56:00;;;;;;;4.72;1.50;;;;;;;26.20;53.96;101280.13;5071506;28;20025;-66
2022/08/04 11:58:25;;;;;;;4.32;1.63;;;;;;;26.20;53.84;101282.78;5072597;28;20480;-66
2022/08/04 12:00:54;;;;;;;4.25;1.60;;;;;;;26.21;54.26;101278.28;5072576;28;20059;-66
2022/08/04 12:03:37;;;;;;;4.28;1.60;;;;;;;26.20;54.26;101281.94;5072201;28;20074;-66
2022/08/04 12:06:17;;;;;;;4.85;1.70;;;;;;;26.20;53.92;101292.63;5075943;28;20043;-66
2022/08/04 12:08:57;;;;;;;4.97;1.83;;;;;;;26.20;54.34;101292.63;5076536;28;20103;-66
2022/08/04 12:12:01;;;;;;;3.60;1.50;;;;;;;26.21;54.02;101291.63;5075740;28;20021;-66
2022/08/04 12:14:48;;;;;;;3.22;1.50;;;;;;;26.19;53.85;101291.78;5046439;28;20040;-66